sensor_id;sensor_type;location;lat;lon;timestamp;P1;P2;P0
74436;PMS7003;62868;52.360;30.424;2023-11-19T00:01:03;0.3;0;0
74436;PMS7003;62868;52.360;30.424;2023-11-19T00:05:43;0;0;0
74436;PMS7003;62868;52.360;30.424;2023-11-19T00:10:33;0.3;0;0
74436;PMS7003;62868;52.360;30.424;2023-11-19T00:16:01;1;0.3;0
74436;PMS7003;62868;52.360;30.424;2023-11-19T00:21:13;0.3;0;0
74436;PMS7003;62868;52.360;30.424;2023-11-19T00:25:53;0.3;0;0
74436;PMS7003;62868;52.360;30.424;2023-11-19T00:30:35;0;0;0
74436;PMS7003;62868;52.360;30.424;2023-11-19T00:35:35;0;0;0
74436;PMS7003;62868;52.360;30.424;2023-11-19T00:40:33;0;0;0
74436;PMS7003;62868;52.360;30.424;2023-11-19T00:46:13;0;0;0
74436;PMS7003;62868;52.360;30.424;2023-11-19T00:51:01;0.7;0;0
74436;PMS7003;62868;52.360;30.424;2023-11-19T00:56:01;0.3;0;0
74436;PMS7003;62868;52.360;30.424;2023-11-19T01:00:43;0;0;0
74436;PMS7003;62868;52.360;30.424;2023-11-19T01:05:33;0.7;0.3;0
74436;PMS7003;62868;52.360;30.424;2023-11-19T01:11:19;0.3;0;0
74436;PMS7003;62868;52.360;30.424;2023-11-19T01:15:53;0;0;0
74436;PMS7003;62868;52.360;30.424;2023-11-19T01:20:35;0;0;0
74436;PMS7003;62868;52.360;30.424;2023-11-19T01:25:45;0;0;0
74436;PMS7003;62868;52.360;30.424;2023-11-19T01:30:35;1.3;0;0
74436;PMS7003;62868;52.360;30.424;2023-11-19T01:35:55;0;0;0
74436;PMS7003;62868;52.360;30.424;2023-11-19T01:40:33;0.3;0;0
74436;PMS7003;62868;52.360;30.424;2023-11-19T01:46:01;0.3;0;0
74436;PMS7003;62868;52.360;30.424;2023-11-19T01:50:43;0;0;0
74436;PMS7003;62868;52.360;30.424;2023-11-19T01:56:13;0;0;0
74436;PMS7003;62868;52.360;30.424;2023-11-19T02:01:13;0;0;0
74436;PMS7003;62868;52.360;30.424;2023-11-19T02:05:51;1.7;0.3;0
74436;PMS7003;62868;52.360;30.424;2023-11-19T02:10:35;0.7;0;0
74436;PMS7003;62868;52.360;30.424;2023-11-19T02:15:45;0.8;0.3;0
74436;PMS7003;62868;52.360;30.424;2023-11-19T02:20:33;1;0;0
74436;PMS7003;62868;52.360;30.424;2023-11-19T02:26:14;0;0;0
74436;PMS7003;62868;52.360;30.424;2023-11-19T02:30:33;1;0.7;0
74436;PMS7003;62868;52.360;30.424;2023-11-19T02:36:01;1.5;0.8;0.3
74436;PMS7003;62868;52.360;30.424;2023-11-19T02:40:43;0.3;0.3;0
74436;PMS7003;62868;52.360;30.424;2023-11-19T02:45:35;0.3;0.3;0.3
74436;PMS7003;62868;52.360;30.424;2023-11-19T02:51:13;0.3;0;0
74436;PMS7003;62868;52.360;30.424;2023-11-19T02:55:51;0.5;0.3;0.3
74436;PMS7003;62868;52.360;30.424;2023-11-19T03:00:35;0;0;0
74436;PMS7003;62868;52.360;30.424;2023-11-19T03:05:35;0;0;0
74436;PMS7003;62868;52.360;30.424;2023-11-19T03:11:03;0;0;0
74436;PMS7003;62868;52.360;30.424;2023-11-19T03:16:13;0;0;0
74436;PMS7003;62868;52.360;30.424;2023-11-19T03:21:13;0.7;0;0
74436;PMS7003;62868;52.360;30.424;2023-11-19T03:26:01;1;0.3;0
74436;PMS7003;62868;52.360;30.424;2023-11-19T03:30:43;0;0;0
74436;PMS7003;62868;52.360;30.424;2023-11-19T03:35:53;0;0;0
74436;PMS7003;62868;52.360;30.424;2023-11-19T03:41:13;1.7;0;0
74436;PMS7003;62868;52.360;30.424;2023-11-19T03:45:33;0.3;0;0
74436;PMS7003;62868;52.360;30.424;2023-11-19T03:50:43;0;0;0
74436;PMS7003;62868;52.360;30.424;2023-11-19T03:55:33;0;0;0
74436;PMS7003;62868;52.360;30.424;2023-11-19T04:01:01;0.3;0;0
74436;PMS7003;62868;52.360;30.424;2023-11-19T04:06:13;1.7;0.7;0
74436;PMS7003;62868;52.360;30.424;2023-11-19T04:11:01;1;0;0
74436;PMS7003;62868;52.360;30.424;2023-11-19T04:16:01;1.3;0.7;0.3
74436;PMS7003;62868;52.360;30.424;2023-11-19T04:21:13;0.3;0;0
74436;PMS7003;62868;52.360;30.424;2023-11-19T04:25:33;1;0;0
74436;PMS7003;62868;52.360;30.424;2023-11-19T04:31:11;0.3;0;0
74436;PMS7003;62868;52.360;30.424;2023-11-19T04:35:51;1;0.3;0
74436;PMS7003;62868;52.360;30.424;2023-11-19T04:40:59;1.3;0.7;0
74436;PMS7003;62868;52.360;30.424;2023-11-19T04:45:35;1;0.3;0
74436;PMS7003;62868;52.360;30.424;2023-11-19T04:51:04;0.8;0.5;0
74436;PMS7003;62868;52.360;30.424;2023-11-19T04:56:11;1.3;0.3;0
74436;PMS7003;62868;52.360;30.424;2023-11-19T05:00:35;1.7;0.7;0.3
74436;PMS7003;62868;52.360;30.424;2023-11-19T05:05:53;1;1;0
74436;PMS7003;62868;52.360;30.424;2023-11-19T05:10:35;1.3;0.3;0
74436;PMS7003;62868;52.360;30.424;2023-11-19T05:15:43;1.3;0.3;0
74436;PMS7003;62868;52.360;30.424;2023-11-19T05:21:09;0.7;0.3;0
74436;PMS7003;62868;52.360;30.424;2023-11-19T05:25:36;1.7;1;0.3
74436;PMS7003;62868;52.360;30.424;2023-11-19T05:30:41;1.3;0.3;0.3
74436;PMS7003;62868;52.360;30.424;2023-11-19T05:35:34;2.3;1;1
74436;PMS7003;62868;52.360;30.424;2023-11-19T05:41:03;3.3;1;0.3
74436;PMS7003;62868;52.360;30.424;2023-11-19T05:46:11;3.3;2.5;1.5
74436;PMS7003;62868;52.360;30.424;2023-11-19T05:51:01;1.7;0.7;0.3
74436;PMS7003;62868;52.360;30.424;2023-11-19T05:55:53;1;1;0.7
74436;PMS7003;62868;52.360;30.424;2023-11-19T06:00:33;0.7;0.7;0.3
74436;PMS7003;62868;52.360;30.424;2023-11-19T06:05:33;1;0.5;0.3
74436;PMS7003;62868;52.360;30.424;2023-11-19T06:11:13;1.3;0.3;0
74436;PMS7003;62868;52.360;30.424;2023-11-19T06:15:35;0.3;0.3;0
74436;PMS7003;62868;52.360;30.424;2023-11-19T06:20:51;0.3;0.3;0.3
74436;PMS7003;62868;52.360;30.424;2023-11-19T06:25:33;2;0.5;0.3
74436;PMS7003;62868;52.360;30.424;2023-11-19T06:30:53;1.3;0.7;0.3
74436;PMS7003;62868;52.360;30.424;2023-11-19T06:36:07;0.7;0.7;0
74436;PMS7003;62868;52.360;30.424;2023-11-19T06:41:09;0.3;0;0
74436;PMS7003;62868;52.360;30.424;2023-11-19T06:45:59;1.3;0.8;0.3
74436;PMS7003;62868;52.360;30.424;2023-11-19T06:51:09;1.3;0.7;0.3
74436;PMS7003;62868;52.360;30.424;2023-11-19T06:55:33;1;0.3;0.3
74436;PMS7003;62868;52.360;30.424;2023-11-19T07:00:57;1;0.7;0
74436;PMS7003;62868;52.360;30.424;2023-11-19T07:05:33;2.3;1.3;0.5
74436;PMS7003;62868;52.360;30.424;2023-11-19T07:10:33;1;0.3;0
74436;PMS7003;62868;52.360;30.424;2023-11-19T07:15:41;2.3;0.3;0.3
74436;PMS7003;62868;52.360;30.424;2023-11-19T07:20:45;1.7;0.7;0.3
74436;PMS7003;62868;52.360;30.424;2023-11-19T07:26:11;1.8;1.3;0.5
74436;PMS7003;62868;52.360;30.424;2023-11-19T07:31:11;2.7;1.3;1
74436;PMS7003;62868;52.360;30.424;2023-11-19T07:35:59;2.3;1;0.7
74436;PMS7003;62868;52.360;30.424;2023-11-19T07:41:11;0.5;0;0
74436;PMS7003;62868;52.360;30.424;2023-11-19T07:45:33;2.3;0.7;0.3
74436;PMS7003;62868;52.360;30.424;2023-11-19T07:50:59;1.3;1;0.3
74436;PMS7003;62868;52.360;30.424;2023-11-19T07:55:45;2.3;1;0.7
74436;PMS7003;62868;52.360;30.424;2023-11-19T08:00:33;2.3;1.8;0.8
74436;PMS7003;62868;52.360;30.424;2023-11-19T08:05:43;1;1;0.3
74436;PMS7003;62868;52.360;30.424;2023-11-19T08:10:35;1;0.7;0.7
74436;PMS7003;62868;52.360;30.424;2023-11-19T08:16:09;1;0.7;0.3
74436;PMS7003;62868;52.360;30.424;2023-11-19T08:21:11;1;0.8;0.3
74436;PMS7003;62868;52.360;30.424;2023-11-19T08:26:01;0;0;0
74436;PMS7003;62868;52.360;30.424;2023-11-19T08:31:13;0.7;0.3;0
74436;PMS7003;62868;52.360;30.424;2023-11-19T08:35:51;0.7;0.7;0.7
74436;PMS7003;62868;52.360;30.424;2023-11-19T08:40:33;1;1;0.8
74436;PMS7003;62868;52.360;30.424;2023-11-19T08:45:39;1;0.3;0
74436;PMS7003;62868;52.360;30.424;2023-11-19T08:50:33;1.7;1.7;1
74436;PMS7003;62868;52.360;30.424;2023-11-19T08:55:35;1.3;1;0.3
74436;PMS7003;62868;52.360;30.424;2023-11-19T09:00:45;2.5;2.3;1
74436;PMS7003;62868;52.360;30.424;2023-11-19T09:06:11;4.7;4.3;3
74436;PMS7003;62868;52.360;30.424;2023-11-19T09:11:11;4.3;3;1.7
74436;PMS7003;62868;52.360;30.424;2023-11-19T09:15:53;6;4.7;2
74436;PMS7003;62868;52.360;30.424;2023-11-19T09:21:07;2.5;2;1.3
74436;PMS7003;62868;52.360;30.424;2023-11-19T09:25:33;2.3;1;1
74436;PMS7003;62868;52.360;30.424;2023-11-19T09:30:59;3.3;2.3;1
74436;PMS7003;62868;52.360;30.424;2023-11-19T09:35:33;3;1.5;1
74436;PMS7003;62868;52.360;30.424;2023-11-19T09:41:03;2.3;1.3;1
74436;PMS7003;62868;52.360;30.424;2023-11-19T09:45:37;1.3;1.3;1.3
74436;PMS7003;62868;52.360;30.424;2023-11-19T09:50:43;2.3;1.7;1.3
74436;PMS7003;62868;52.360;30.424;2023-11-19T09:56:13;1.5;1.3;1
74436;PMS7003;62868;52.360;30.424;2023-11-19T10:01:13;2.7;1.3;1
74436;PMS7003;62868;52.360;30.424;2023-11-19T10:05:53;1;0.7;0.7
74436;PMS7003;62868;52.360;30.424;2023-11-19T10:11:11;0.7;0.7;0
74436;PMS7003;62868;52.360;30.424;2023-11-19T10:15:36;0.5;0.5;0.3
74436;PMS7003;62868;52.360;30.424;2023-11-19T10:20:43;0.7;0.3;0.3
74436;PMS7003;62868;52.360;30.424;2023-11-19T10:25:35;1;1;0.7
74436;PMS7003;62868;52.360;30.424;2023-11-19T10:30:35;1.3;1.3;0.7
74436;PMS7003;62868;52.360;30.424;2023-11-19T10:35:33;1.5;0.5;0.5
74436;PMS7003;62868;52.360;30.424;2023-11-19T10:40:38;1.3;1;1
74436;PMS7003;62868;52.360;30.424;2023-11-19T10:46:11;2.7;2;1.3
74436;PMS7003;62868;52.360;30.424;2023-11-19T10:51:09;1;1;0.3
74436;PMS7003;62868;52.360;30.424;2023-11-19T10:55:39;2;1.3;0.8
74436;PMS7003;62868;52.360;30.424;2023-11-19T11:01:13;1.3;1;0.3
74436;PMS7003;62868;52.360;30.424;2023-11-19T11:05:35;2.7;1.7;1.3
74436;PMS7003;62868;52.360;30.424;2023-11-19T11:11:11;1.3;1;0.7
74436;PMS7003;62868;52.360;30.424;2023-11-19T11:15:33;1;0.8;0.5
74436;PMS7003;62868;52.360;30.424;2023-11-19T11:20:35;2.3;1.3;1
74436;PMS7003;62868;52.360;30.424;2023-11-19T11:25:51;3.3;2.7;1.3
74436;PMS7003;62868;52.360;30.424;2023-11-19T11:30:39;2.5;2;1.3
74436;PMS7003;62868;52.360;30.424;2023-11-19T11:35:52;3.3;1.7;1
74436;PMS7003;62868;52.360;30.424;2023-11-19T11:40:47;1.7;1.3;0.7
74436;PMS7003;62868;52.360;30.424;2023-11-19T11:46:38;1.3;1;0.7
74436;PMS7003;62868;52.360;30.424;2023-11-19T11:51:11;2.5;1.8;1.3
74436;PMS7003;62868;52.360;30.424;2023-11-19T11:55:35;2.3;1.7;1.7
74436;PMS7003;62868;52.360;30.424;2023-11-19T12:01:14;1.7;1;0.3
74436;PMS7003;62868;52.360;30.424;2023-11-19T12:05:33;1.3;1;1
74436;PMS7003;62868;52.360;30.424;2023-11-19T12:10:36;1;0.8;0.5
74436;PMS7003;62868;52.360;30.424;2023-11-19T12:15:33;1.3;0.7;0.3
74436;PMS7003;62868;52.360;30.424;2023-11-19T12:20:33;1;1;0.7
74436;PMS7003;62868;52.360;30.424;2023-11-19T12:25:49;3;1.3;1
74436;PMS7003;62868;52.360;30.424;2023-11-19T12:30:49;3;1.5;1.3
74436;PMS7003;62868;52.360;30.424;2023-11-19T12:36:09;4.7;2;1
74436;PMS7003;62868;52.360;30.424;2023-11-19T12:41:09;4.7;2.7;1.7
74436;PMS7003;62868;52.360;30.424;2023-11-19T12:45:34;2;2;1.3
74436;PMS7003;62868;52.360;30.424;2023-11-19T12:51:11;2.5;2;1.5
74436;PMS7003;62868;52.360;30.424;2023-11-19T12:55:33;1.7;1.3;1
74436;PMS7003;62868;52.360;30.424;2023-11-19T13:00:34;2;1;0.7
74436;PMS7003;62868;52.360;30.424;2023-11-19T13:05:51;1.7;1.3;1
74436;PMS7003;62868;52.360;30.424;2023-11-19T13:10:50;2.5;1.3;1
74436;PMS7003;62868;52.360;30.424;2023-11-19T13:15:35;6;3.3;1.7
74436;PMS7003;62868;52.360;30.424;2023-11-19T13:20:51;8;6;4.3
74436;PMS7003;62868;52.360;30.424;2023-11-19T13:25:51;12.5;9.5;6.3
74436;PMS7003;62868;52.360;30.424;2023-11-19T13:31:13;7;5;4.3
74436;PMS7003;62868;52.360;30.424;2023-11-19T13:35:53;6.3;5;2.7
74436;PMS7003;62868;52.360;30.424;2023-11-19T13:41:11;4.3;2.7;2
74436;PMS7003;62868;52.360;30.424;2023-11-19T13:45:33;6.8;4.5;3
74436;PMS7003;62868;52.360;30.424;2023-11-19T13:50:33;4;3;2.3
74436;PMS7003;62868;52.360;30.424;2023-11-19T13:55:51;3.7;3;1.7
74436;PMS7003;62868;52.360;30.424;2023-11-19T14:00:43;3.7;2.7;2
74436;PMS7003;62868;52.360;30.424;2023-11-19T14:05:51;3.3;2.5;2.5
74436;PMS7003;62868;52.360;30.424;2023-11-19T14:10:51;4.7;3.7;2.3
74436;PMS7003;62868;52.360;30.424;2023-11-19T14:16:11;5.3;4;2.7
74436;PMS7003;62868;52.360;30.424;2023-11-19T14:21:13;7.7;5.3;4.3
74436;PMS7003;62868;52.360;30.424;2023-11-19T14:25:51;10.3;5.8;4
74436;PMS7003;62868;52.360;30.424;2023-11-19T14:31:11;8.3;7;4
74436;PMS7003;62868;52.360;30.424;2023-11-19T14:35:45;7;5.3;2.7
74436;PMS7003;62868;52.360;30.424;2023-11-19T14:40:33;10.7;5.7;4
74436;PMS7003;62868;52.360;30.424;2023-11-19T14:45:51;6.5;4.3;2
74436;PMS7003;62868;52.360;30.424;2023-11-19T14:51:01;3.7;2.7;1.7
74436;PMS7003;62868;52.360;30.424;2023-11-19T14:55:51;2;1.7;1.3
74436;PMS7003;62868;52.360;30.424;2023-11-19T15:00:53;3;2;1
74436;PMS7003;62868;52.360;30.424;2023-11-19T15:06:11;2.3;1.7;1
74436;PMS7003;62868;52.360;30.424;2023-11-19T15:11:11;2.3;1.3;1
74436;PMS7003;62868;52.360;30.424;2023-11-19T15:15:53;3.3;2;1.7
74436;PMS7003;62868;52.360;30.424;2023-11-19T15:21:11;5.7;4;2
74436;PMS7003;62868;52.360;30.424;2023-11-19T15:25:39;4.7;3.3;2.3
74436;PMS7003;62868;52.360;30.424;2023-11-19T15:30:35;2.5;1;1
74436;PMS7003;62868;52.360;30.424;2023-11-19T15:35:51;3;2;1
74436;PMS7003;62868;52.360;30.424;2023-11-19T15:40:43;4;2.3;1
74436;PMS7003;62868;52.360;30.424;2023-11-19T15:45:49;1;0.3;0.3
74436;PMS7003;62868;52.360;30.424;2023-11-19T15:50:51;0.5;0.5;0
74436;PMS7003;62868;52.360;30.424;2023-11-19T15:56:09;1.7;1;0.3
74436;PMS7003;62868;52.360;30.424;2023-11-19T16:01:13;2;1.7;0.3
74436;PMS7003;62868;52.360;30.424;2023-11-19T16:05:51;1.7;1.3;0.3
74436;PMS7003;62868;52.360;30.424;2023-11-19T16:11:13;1.3;0.8;0
74436;PMS7003;62868;52.360;30.424;2023-11-19T16:15:33;2.3;1;0.3
74436;PMS7003;62868;52.360;30.424;2023-11-19T16:20:35;2;1.7;1
74436;PMS7003;62868;52.360;30.424;2023-11-19T16:25:43;5;4.3;3
74436;PMS7003;62868;52.360;30.424;2023-11-19T16:30:46;4.8;3.8;2.5
74436;PMS7003;62868;52.360;30.424;2023-11-19T16:35:55;4.3;4.3;2.7
74436;PMS7003;62868;52.360;30.424;2023-11-19T16:40:33;2.7;2.3;1.7
74436;PMS7003;62868;52.360;30.424;2023-11-19T16:46:11;4.5;2.8;2
74436;PMS7003;62868;52.360;30.424;2023-11-19T16:51:11;1.7;0.7;0.3
74436;PMS7003;62868;52.360;30.424;2023-11-19T16:55:49;1.3;0.3;0
74436;PMS7003;62868;52.360;30.424;2023-11-19T17:01:11;1;0.3;0
74436;PMS7003;62868;52.360;30.424;2023-11-19T17:05:43;1.3;0.3;0
74436;PMS7003;62868;52.360;30.424;2023-11-19T17:10:53;0.7;0.3;0
74436;PMS7003;62868;52.360;30.424;2023-11-19T17:15:35;0.7;0.7;0.3
74436;PMS7003;62868;52.360;30.424;2023-11-19T17:20:43;0.7;0.3;0
74436;PMS7003;62868;52.360;30.424;2023-11-19T17:25:49;0.5;0.5;0
74436;PMS7003;62868;52.360;30.424;2023-11-19T17:30:53;1;0.7;0.3
74436;PMS7003;62868;52.360;30.424;2023-11-19T17:36:11;1.3;0.7;0.3
74436;PMS7003;62868;52.360;30.424;2023-11-19T17:41:13;3;2.7;1.7
74436;PMS7003;62868;52.360;30.424;2023-11-19T17:45:33;3;2.3;0.8
74436;PMS7003;62868;52.360;30.424;2023-11-19T17:50:45;4.3;2.3;0.7
74436;PMS7003;62868;52.360;30.424;2023-11-19T17:55:34;1.3;1.3;0.7
74436;PMS7003;62868;52.360;30.424;2023-11-19T18:00:33;2.7;0.7;0.7
74436;PMS7003;62868;52.360;30.424;2023-11-19T18:05:51;2.8;2.8;1.5
74436;PMS7003;62868;52.360;30.424;2023-11-19T18:10:43;2;2;0.5
74436;PMS7003;62868;52.360;30.424;2023-11-19T18:15:53;2.7;1;1
74436;PMS7003;62868;52.360;30.424;2023-11-19T18:20:53;0.7;0.7;0.7
74436;PMS7003;62868;52.360;30.424;2023-11-19T18:26:13;2;1.7;0.3
74436;PMS7003;62868;52.360;30.424;2023-11-19T18:31:13;3;0.8;0.5
74436;PMS7003;62868;52.360;30.424;2023-11-19T18:35:53;1.3;1;0.3
74436;PMS7003;62868;52.360;30.424;2023-11-19T18:41:13;2.3;1;0.7
74436;PMS7003;62868;52.360;30.424;2023-11-19T18:45:33;2;1;0.7
74436;PMS7003;62868;52.360;30.424;2023-11-19T18:50:33;2;1.5;0.8
74436;PMS7003;62868;52.360;30.424;2023-11-19T18:55:39;2.7;2.3;1
74436;PMS7003;62868;52.360;30.424;2023-11-19T19:00:43;2.3;2;1.3
74436;PMS7003;62868;52.360;30.424;2023-11-19T19:05:59;2.3;2.3;1.7
74436;PMS7003;62868;52.360;30.424;2023-11-19T19:10:33;3.3;1;1
74436;PMS7003;62868;52.360;30.424;2023-11-19T19:16:11;2.7;1.7;1
74436;PMS7003;62868;52.360;30.424;2023-11-19T19:21:11;1;1;1
74436;PMS7003;62868;52.360;30.424;2023-11-19T19:25:49;2;0.7;0.3
74436;PMS7003;62868;52.360;30.424;2023-11-19T19:31:13;3.3;0.7;0.7
74436;PMS7003;62868;52.360;30.424;2023-11-19T19:35:33;3.3;1;0.7
74436;PMS7003;62868;52.360;30.424;2023-11-19T19:40:41;2;0.8;0.3
74436;PMS7003;62868;52.360;30.424;2023-11-19T19:45:41;1.7;0.7;0.3
74436;PMS7003;62868;52.360;30.424;2023-11-19T19:50:35;0.3;0;0
74436;PMS7003;62868;52.360;30.424;2023-11-19T19:55:53;1.3;0.7;0
74436;PMS7003;62868;52.360;30.424;2023-11-19T20:00:43;1.8;0.5;0.3
74436;PMS7003;62868;52.360;30.424;2023-11-19T20:05:43;2;0.7;0
74436;PMS7003;62868;52.360;30.424;2023-11-19T20:11:13;1;1;0.3
74436;PMS7003;62868;52.360;30.424;2023-11-19T20:16:13;1.3;0.5;0
74436;PMS7003;62868;52.360;30.424;2023-11-19T20:20:33;0.3;0.3;0
74436;PMS7003;62868;52.360;30.424;2023-11-19T20:25:43;1;0.7;0.3
74436;PMS7003;62868;52.360;30.424;2023-11-19T20:30:33;1;0.3;0
74436;PMS7003;62868;52.360;30.424;2023-11-19T20:35:43;0.5;0.3;0.3
74436;PMS7003;62868;52.360;30.424;2023-11-19T20:40:35;1;1;0
74436;PMS7003;62868;52.360;30.424;2023-11-19T20:46:01;0.7;0.3;0
74436;PMS7003;62868;52.360;30.424;2023-11-19T20:50:53;1.7;1;1
74436;PMS7003;62868;52.360;30.424;2023-11-19T20:55:33;2;1;0.3
74436;PMS7003;62868;52.360;30.424;2023-11-19T21:01:13;0.7;0.7;0.7
74436;PMS7003;62868;52.360;30.424;2023-11-19T21:06:01;0.7;0.3;0.3
74436;PMS7003;62868;52.360;30.424;2023-11-19T21:10:53;1.7;1.7;0.7
74436;PMS7003;62868;52.360;30.424;2023-11-19T21:15:43;1.3;0.5;0.3
74436;PMS7003;62868;52.360;30.424;2023-11-19T21:20:33;0;0;0
74436;PMS7003;62868;52.360;30.424;2023-11-19T21:26:11;0.7;0.7;0.3
74436;PMS7003;62868;52.360;30.424;2023-11-19T21:31:03;0.3;0;0
74436;PMS7003;62868;52.360;30.424;2023-11-19T21:35:43;0.8;0.5;0
74436;PMS7003;62868;52.360;30.424;2023-11-19T21:40:53;0;0;0
74436;PMS7003;62868;52.360;30.424;2023-11-19T21:45:33;0.7;0.3;0
74436;PMS7003;62868;52.360;30.424;2023-11-19T21:51:13;0.3;0.3;0
74436;PMS7003;62868;52.360;30.424;2023-11-19T21:56:03;2;1.3;0.5
74436;PMS7003;62868;52.360;30.424;2023-11-19T22:00:33;1.7;0.7;0.3
74436;PMS7003;62868;52.360;30.424;2023-11-19T22:05:41;0.3;0.3;0
74436;PMS7003;62868;52.360;30.424;2023-11-19T22:10:53;1.5;0.5;0
74436;PMS7003;62868;52.360;30.424;2023-11-19T22:16:11;0.7;0.7;0.3
74436;PMS7003;62868;52.360;30.424;2023-11-19T22:20:53;0.3;0.3;0
74436;PMS7003;62868;52.360;30.424;2023-11-19T22:25:43;1;0.7;0
74436;PMS7003;62868;52.360;30.424;2023-11-19T22:30:51;2;1.5;0.5
74436;PMS7003;62868;52.360;30.424;2023-11-19T22:35:43;3;1.7;1
74436;PMS7003;62868;52.360;30.424;2023-11-19T22:41:13;2.3;1;1
74436;PMS7003;62868;52.360;30.424;2023-11-19T22:45:33;1.7;1;0.3
74436;PMS7003;62868;52.360;30.424;2023-11-19T22:50:33;2.8;1.8;0.8
74436;PMS7003;62868;52.360;30.424;2023-11-19T22:55:33;2.7;1.7;0.7
74436;PMS7003;62868;52.360;30.424;2023-11-19T23:00:33;4.7;3.3;2.3
74436;PMS7003;62868;52.360;30.424;2023-11-19T23:06:11;1;1;0.3
74436;PMS7003;62868;52.360;30.424;2023-11-19T23:10:33;2;1.8;0.8
74436;PMS7003;62868;52.360;30.424;2023-11-19T23:15:51;3.3;1;1
74436;PMS7003;62868;52.360;30.424;2023-11-19T23:20:53;1.3;0.3;0
74436;PMS7003;62868;52.360;30.424;2023-11-19T23:25:43;1.7;1;0.7
74436;PMS7003;62868;52.360;30.424;2023-11-19T23:31:11;3.5;2.3;1
74436;PMS7003;62868;52.360;30.424;2023-11-19T23:35:51;2.3;1.3;0.7
74436;PMS7003;62868;52.360;30.424;2023-11-19T23:40:35;3.7;2.7;1.7
74436;PMS7003;62868;52.360;30.424;2023-11-19T23:45:35;1.7;1;0.3
74436;PMS7003;62868;52.360;30.424;2023-11-19T23:50:35;2;2;1.5
74436;PMS7003;62868;52.360;30.424;2023-11-19T23:56:11;4.3;3;1
